createdAt,value
2023-12-11T00:00:02.304Z,6.4
2023-12-11T00:20:02.753Z,6.3
2023-12-11T00:40:02.859Z,6.2
2023-12-11T01:00:02.742Z,6.2
2023-12-11T01:20:02.374Z,6.2
2023-12-11T01:40:02.881Z,6
2023-12-11T02:00:02.329Z,6
2023-12-11T02:20:02.986Z,6
2023-12-11T02:40:02.411Z,6.2
2023-12-11T03:00:02.783Z,6.3
2023-12-11T03:20:02.392Z,6.4
2023-12-11T03:40:02.809Z,6.7
2023-12-11T04:00:02.254Z,7
2023-12-11T04:20:03.093Z,7
2023-12-11T04:40:02.858Z,7.1
2023-12-11T05:00:02.584Z,7.3
2023-12-11T05:20:02.260Z,7.6
2023-12-11T05:40:19.978Z,7.6
2023-12-11T06:00:02.686Z,7.6
2023-12-11T06:20:02.482Z,7.6
2023-12-11T06:40:02.811Z,7.6
2023-12-11T07:00:02.483Z,7.5
2023-12-11T07:20:02.423Z,7.6
2023-12-11T07:40:02.943Z,7.6
2023-12-11T08:00:02.848Z,7.7
2023-12-11T08:20:02.797Z,7.9
2023-12-11T08:40:02.570Z,8
2023-12-11T09:00:03.826Z,8
2023-12-11T09:20:02.686Z,8
2023-12-11T09:40:02.270Z,8.2
2023-12-11T10:00:04.091Z,8.2
2023-12-11T10:20:02.320Z,8.1
2023-12-11T10:40:02.926Z,8.1
2023-12-11T11:00:02.601Z,8.2
2023-12-11T11:20:02.586Z,8.2
2023-12-11T11:40:02.605Z,8.5
2023-12-11T12:00:03.510Z,8.6
2023-12-11T12:20:02.725Z,8.7
2023-12-11T12:40:02.712Z,8.5
2023-12-11T13:00:02.157Z,8.5
2023-12-11T13:20:03.243Z,8.5
2023-12-11T13:40:02.959Z,8.7
2023-12-11T14:00:02.725Z,8.6
2023-12-11T14:20:02.290Z,8.5
2023-12-11T14:40:02.870Z,8.5
2023-12-11T15:00:03.926Z,8.5
2023-12-11T15:20:02.795Z,8.5
2023-12-11T15:40:02.455Z,8.3
2023-12-11T16:00:02.956Z,8.1
2023-12-11T16:20:02.816Z,8.1
2023-12-11T16:40:02.225Z,8.1
2023-12-11T17:00:02.744Z,7.9
2023-12-11T17:20:02.459Z,7.9
2023-12-11T17:40:03.012Z,8.1
2023-12-11T18:00:02.616Z,8.1
2023-12-11T18:20:02.222Z,8.2
2023-12-11T18:40:02.921Z,8.3
2023-12-11T19:00:02.636Z,8.2
2023-12-11T19:20:02.522Z,8.2
2023-12-11T19:40:03.015Z,8.2
2023-12-11T20:00:02.622Z,8.2
2023-12-11T20:20:02.381Z,8.2
2023-12-11T20:40:02.897Z,8.2
2023-12-11T21:00:03.123Z,8.2
2023-12-11T21:20:02.892Z,8.1
2023-12-11T21:40:02.386Z,7.9
2023-12-11T22:00:02.960Z,7.9
2023-12-11T22:20:02.663Z,7.9
2023-12-11T22:40:03.210Z,7.9
2023-12-11T23:00:03.153Z,7.7
2023-12-11T23:20:02.847Z,7.5
2023-12-11T23:40:02.339Z,7.4
